Time;durP1;ratioP1;P1;durP2;ratioP2;P2;SDS_P1;SDS_P2;PMS_P1;PMS_P2;Temp;Humidity;BMP_temperature;BMP_pressure;BME280_temperature;BME280_humidity;BME280_pressure;Samples;Min_cycle;Max_cycle;Signal;HPM_P1;HPM_P2
2022/03/21 04:54:10;;;;;;;15.30;9.57;;;3.60;95.40;;;;;;5588029;23;20107;-92
2022/03/21 04:56:38;;;;;;;16.48;9.48;;;3.80;94.90;;;;;;4956561;28;20343;-90
2022/03/21 04:59:05;;;;;;;18.10;10.48;;;3.70;94.70;;;;;;4949947;29;20051;-90
2022/03/21 05:01:35;;;;;;;17.88;10.73;;;3.30;95.50;;;;;;4958963;28;20119;-89
2022/03/21 05:04:02;;;;;;;18.48;10.68;;;2.90;96.60;;;;;;4958997;29;21461;-89
2022/03/21 05:06:30;;;;;;;18.90;10.75;;;2.50;97.60;;;;;;4960040;28;20110;-92
2022/03/21 05:08:59;;;;;;;17.45;10.25;;;2.40;97.70;;;;;;4961377;29;20108;-91
2022/03/21 05:11:28;;;;;;;19.67;10.50;;;2.80;97.50;;;;;;4957545;29;20054;-95
2022/03/21 05:13:55;;;;;;;17.60;10.65;;;3.20;97.00;;;;;;4946918;28;20145;-94
2022/03/21 05:16:22;;;;;;;17.27;10.60;;;3.40;96.40;;;;;;4958980;28;20051;-91
2022/03/21 05:18:51;;;;;;;18.23;9.80;;;3.40;96.00;;;;;;4958365;28;20055;-84
2022/03/21 05:21:20;;;;;;;17.60;9.75;;;3.60;96.00;;;;;;4959332;29;20146;-86
2022/03/21 05:32:08;;;;;;;17.08;10.07;;;3.50;95.60;;;;;;4962962;29;20066;-96
2022/03/21 05:37:20;;;;;;;17.10;10.18;;;3.20;96.30;;;;;;4963161;29;20401;-95
2022/03/21 05:42:33;;;;;;;17.63;10.30;;;3.10;97.00;;;;;;4959412;29;20134;-91
2022/03/21 05:45:00;;;;;;;13.85;8.63;;;2.90;97.30;;;;;;4961170;29;20066;-95
2022/03/21 05:47:27;;;;;;;15.77;9.52;;;3.20;96.80;;;;;;4959170;29;20138;-91
2022/03/21 05:49:53;;;;;;;16.30;9.45;;;3.40;96.30;;;;;;4958993;28;20062;-93
2022/03/21 05:52:20;;;;;;;19.17;10.68;;;3.40;96.10;;;;;;4957863;29;20051;-93
2022/03/21 05:54:48;;;;;;;19.50;11.85;;;3.00;97.00;;;;;;4976664;28;20106;-94
2022/03/21 05:57:18;;;;;;;17.88;10.40;;;2.70;97.60;;;;;;4978590;28;20046;-93
2022/03/21 06:02:32;;;;;;;18.10;11.35;;;2.60;97.60;;;;;;4980088;28;20069;-92
2022/03/21 06:05:01;;;;;;;18.75;11.23;;;2.40;98.00;;;;;;4980505;28;20062;-93
2022/03/21 06:07:29;;;;;;;18.58;11.55;;;2.20;98.90;;;;;;4981771;28;20050;-92
2022/03/21 06:09:56;;;;;;;18.55;11.50;;;2.40;98.80;;;;;;4982381;28;20082;-92
2022/03/21 06:12:31;;;;;;;17.73;11.40;;;2.30;98.50;;;;;;4965338;28;20133;-91
2022/03/21 06:15:02;;;;;;;19.85;12.50;;;2.30;99.90;;;;;;4963667;28;20169;-95
2022/03/21 06:17:30;;;;;;;21.38;12.95;;;2.20;99.90;;;;;;4984779;28;20054;-95
2022/03/21 06:19:57;;;;;;;20.02;12.02;;;2.30;99.90;;;;;;4981660;28;20488;-92
2022/03/21 06:22:24;;;;;;;16.90;11.18;;;2.30;99.90;;;;;;4980759;28;20077;-91
2022/03/21 06:24:51;;;;;;;20.85;12.13;;;2.40;99.90;;;;;;4982387;28;20126;-92
2022/03/21 06:27:19;;;;;;;19.95;11.63;;;2.50;99.90;;;;;;4981991;28;20138;-93
2022/03/21 06:29:48;;;;;;;22.70;13.70;;;2.60;99.90;;;;;;4965593;28;20070;-92
2022/03/21 06:32:17;;;;;;;20.63;12.63;;;2.70;99.90;;;;;;4982373;28;20055;-92
2022/03/21 06:34:46;;;;;;;18.90;12.10;;;2.70;99.90;;;;;;4982885;28;20074;-92
2022/03/21 06:37:17;;;;;;;21.20;12.00;;;2.60;99.80;;;;;;4982898;28;20117;-93
2022/03/21 06:39:44;;;;;;;20.63;12.18;;;2.90;99.40;;;;;;4979585;28;20102;-92
2022/03/21 06:42:14;;;;;;;19.17;12.13;;;3.10;98.90;;;;;;4979870;28;20062;-94
2022/03/21 06:44:44;;;;;;;17.67;10.68;;;3.00;98.90;;;;;;4980254;28;20054;-92
2022/03/21 06:47:15;;;;;;;18.70;11.48;;;3.10;98.90;;;;;;4983343;28;20407;-93
2022/03/21 06:49:45;;;;;;;17.63;11.02;;;3.10;99.00;;;;;;4983075;28;20055;-94
2022/03/21 06:52:18;;;;;;;18.95;11.48;;;3.30;98.80;;;;;;4982706;28;20051;-93
2022/03/21 06:54:46;;;;;;;20.38;11.90;;;3.10;98.80;;;;;;4970576;28;20461;-93
2022/03/21 06:57:17;;;;;;;20.25;11.52;;;3.10;99.10;;;;;;4961362;29;20106;-93
2022/03/21 06:59:47;;;;;;;20.25;11.70;;;3.30;98.90;;;;;;4962149;29;20476;-93
2022/03/21 07:02:16;;;;;;;22.23;12.43;;;3.30;98.60;;;;;;4961388;29;20057;-92
2022/03/21 07:04:45;;;;;;;19.17;11.80;;;3.40;98.40;;;;;;4961526;29;20058;-91
2022/03/21 07:07:13;;;;;;;16.98;10.48;;;3.50;98.20;;;;;;4960616;29;20047;-96
2022/03/21 07:09:40;;;;;;;17.35;10.60;;;3.70;97.90;;;;;;4960963;29;20055;-95
2022/03/21 07:12:08;;;;;;;20.17;11.82;;;3.60;98.00;;;;;;4959830;29;20122;-93
2022/03/21 07:14:36;;;;;;;16.40;10.68;;;3.70;98.20;;;;;;4960042;29;20051;-96
2022/03/21 07:17:04;;;;;;;18.08;10.98;;;3.90;97.50;;;;;;4960479;29;20051;-92
2022/03/21 07:19:32;;;;;;;19.52;11.85;;;3.90;97.30;;;;;;4959624;29;20081;-94
2022/03/21 07:22:00;;;;;;;30.52;16.38;;;4.20;97.20;;;;;;4959777;29;20051;-92
2022/03/21 07:24:28;;;;;;;38.90;22.00;;;4.40;96.30;;;;;;4960120;29;20477;-95
2022/03/21 07:26:56;;;;;;;39.95;20.10;;;4.30;96.00;;;;;;4960475;29;20510;-93
2022/03/21 07:29:23;;;;;;;31.75;18.55;;;4.30;95.90;;;;;;4960603;29;20050;-93
2022/03/21 07:31:51;;;;;;;34.80;19.40;;;4.40;95.60;;;;;;4960015;29;20465;-93
2022/03/21 07:34:19;;;;;;;26.17;14.90;;;4.50;94.90;;;;;;4959239;29;20453;-90
2022/03/21 07:36:46;;;;;;;18.33;11.52;;;4.50;94.40;;;;;;4959325;29;20138;-91
2022/03/21 07:39:15;;;;;;;17.05;11.23;;;4.60;94.50;;;;;;4958926;29;20055;-91
2022/03/21 07:41:43;;;;;;;17.27;10.20;;;4.70;93.70;;;;;;4959576;29;20074;-89
2022/03/21 07:44:11;;;;;;;22.58;12.55;;;4.90;93.50;;;;;;4959453;29;20055;-86
2022/03/21 07:49:23;;;;;;;;;;;5.10;92.70;;;;;;4963481;29;20086;-89
2022/03/21 07:51:50;;;;;;;19.15;11.50;;;5.20;91.90;;;;;;4959133;29;20127;-83
2022/03/21 07:54:21;;;;;;;19.52;11.30;;;5.30;91.60;;;;;;4958188;28;20138;-84
2022/03/21 07:56:48;;;;;;;16.73;10.38;;;5.40;90.90;;;;;;4958487;28;20069;-86
2022/03/21 07:59:16;;;;;;;14.95;9.57;;;5.50;90.80;;;;;;4958453;29;20078;-83
2022/03/21 08:01:43;;;;;;;16.00;9.88;;;5.50;90.80;;;;;;4957938;29;20114;-87
2022/03/21 08:04:10;;;;;;;16.92;10.45;;;5.50;89.00;;;;;;4958350;29;20150;-86
2022/03/21 08:06:38;;;;;;;17.40;10.80;;;5.50;90.40;;;;;;4958341;29;20062;-82
2022/03/21 08:09:05;;;;;;;17.50;10.93;;;5.60;90.90;;;;;;4958121;29;20055;-86
2022/03/21 08:11:33;;;;;;;16.40;10.38;;;5.60;90.50;;;;;;4957711;29;20062;-88
2022/03/21 08:14:01;;;;;;;16.65;10.07;;;5.70;90.10;;;;;;4958211;29;20143;-84
2022/03/21 08:16:28;;;;;;;15.55;9.60;;;5.80;87.10;;;;;;4957641;29;20141;-83
2022/03/21 08:18:55;;;;;;;15.30;9.15;;;5.90;87.70;;;;;;4957595;29;20101;-81
2022/03/21 08:21:22;;;;;;;15.40;9.30;;;6.00;87.20;;;;;;4940893;29;20055;-82
2022/03/21 08:23:50;;;;;;;15.98;9.88;;;6.10;86.00;;;;;;4957749;29;20134;-83
2022/03/21 08:26:17;;;;;;;14.18;9.20;;;6.10;86.00;;;;;;4940428;29;20055;-80
2022/03/21 08:28:47;;;;;;;16.98;9.88;;;6.30;85.90;;;;;;4940299;29;20055;-80
2022/03/21 08:31:14;;;;;;;14.45;9.52;;;6.30;83.50;;;;;;4957787;29;20055;-81
2022/03/21 08:33:42;;;;;;;16.00;9.57;;;6.50;81.20;;;;;;4957458;29;20082;-78
2022/03/21 08:36:11;;;;;;;16.42;10.25;;;6.60;80.90;;;;;;4957209;29;20058;-81
2022/03/21 08:38:39;;;;;;;16.80;10.43;;;6.60;79.20;;;;;;4957077;29;20485;-80
2022/03/21 08:41:06;;;;;;;18.13;10.95;;;6.70;80.30;;;;;;4957015;29;20130;-80
2022/03/21 08:43:33;;;;;;;17.50;10.52;;;6.70;81.50;;;;;;4956943;29;20149;-81
2022/03/21 08:46:02;;;;;;;16.58;10.25;;;6.80;81.70;;;;;;4956954;29;20108;-80
2022/03/21 08:51:14;;;;;;;16.95;10.65;;;7.00;80.30;;;;;;4956980;29;20061;-81
2022/03/21 08:53:41;;;;;;;18.60;11.20;;;7.20;80.20;;;;;;4956743;28;20454;-81
2022/03/21 08:56:08;;;;;;;18.23;11.20;;;7.20;80.90;;;;;;4939870;29;20142;-80
2022/03/21 08:58:36;;;;;;;15.55;10.57;;;7.30;80.80;;;;;;4957100;29;20496;-81
2022/03/21 09:01:04;;;;;;;14.10;9.35;;;7.40;80.60;;;;;;4939822;29;20055;-80
2022/03/21 09:03:32;;;;;;;17.52;10.50;;;7.40;79.60;;;;;;4956432;29;20138;-82
2022/03/21 09:05:59;;;;;;;15.55;9.63;;;7.50;78.30;;;;;;4956356;29;20062;-80
2022/03/21 09:08:26;;;;;;;13.27;8.85;;;7.60;78.50;;;;;;4955701;28;20087;-79
2022/03/21 09:10:53;;;;;;;14.30;8.82;;;7.80;77.90;;;;;;4956224;29;20089;-78
2022/03/21 09:13:20;;;;;;;12.63;8.43;;;7.80;77.70;;;;;;4956548;29;20047;-80
2022/03/21 09:15:47;;;;;;;13.77;8.90;;;7.90;76.90;;;;;;4956112;29;20118;-79
2022/03/21 09:18:17;;;;;;;16.25;10.50;;;8.00;76.80;;;;;;4956356;29;20143;-79
2022/03/21 09:20:44;;;;;;;15.60;10.15;;;8.20;76.40;;;;;;4956287;29;20051;-85
2022/03/21 09:23:11;;;;;;;19.70;11.00;;;8.20;75.50;;;;;;4957995;29;20151;-83
2022/03/21 09:25:38;;;;;;;17.38;11.00;;;8.30;74.90;;;;;;4957552;29;20051;-83
2022/03/21 09:28:06;;;;;;;15.90;10.07;;;8.40;73.70;;;;;;4958364;29;20454;-84
2022/03/21 09:30:33;;;;;;;13.20;8.52;;;8.60;72.70;;;;;;4956094;29;20075;-79
2022/03/21 09:33:02;;;;;;;14.50;9.25;;;8.70;71.50;;;;;;4955880;29;20055;-83
2022/03/21 09:35:31;;;;;;;13.75;8.73;;;8.80;71.40;;;;;;4956039;29;20055;-81
2022/03/21 09:38:00;;;;;;;14.10;9.05;;;8.90;71.50;;;;;;4955864;29;20086;-84
2022/03/21 09:40:30;;;;;;;13.98;9.38;;;8.90;71.60;;;;;;4956149;29;20054;-85
2022/03/21 09:42:58;;;;;;;13.65;9.10;;;8.90;70.70;;;;;;4939199;29;20485;-82
2022/03/21 09:45:26;;;;;;;14.05;9.50;;;9.00;70.80;;;;;;4956072;29;20132;-79
2022/03/21 09:48:12;;;;;;;13.68;9.20;;;9.10;70.10;;;;;;4939022;29;20078;-79
2022/03/21 09:50:44;;;;;;;16.08;9.02;;;9.10;70.20;;;;;;4956234;29;20134;-83
2022/03/21 09:53:14;;;;;;;13.25;9.15;;;9.20;68.70;;;;;;4939153;29;20055;-84
2022/03/21 09:55:43;;;;;;;15.98;9.85;;;9.30;68.90;;;;;;4956640;29;20135;-84
2022/03/21 09:58:11;;;;;;;14.95;9.52;;;9.40;68.40;;;;;;4956119;29;20139;-82
2022/03/21 10:00:40;;;;;;;14.93;9.50;;;9.50;68.50;;;;;;4926197;29;20171;-80
2022/03/21 10:03:07;;;;;;;16.50;10.57;;;9.60;67.90;;;;;;4915143;29;20131;-80
2022/03/21 10:05:41;;;;;;;15.30;10.02;;;9.80;66.90;;;;;;4915559;29;20142;-81
2022/03/21 10:08:21;;;;;;;14.77;9.88;;;9.80;63.50;;;;;;4915746;29;20052;-78
2022/03/21 10:11:02;;;;;;;14.68;10.07;;;9.90;62.60;;;;;;4915357;29;20490;-81
2022/03/21 10:13:31;;;;;;;14.73;9.38;;;9.90;62.10;;;;;;4916208;29;20052;-82
2022/03/21 10:16:14;;;;;;;15.82;9.60;;;10.00;62.50;;;;;;4915152;29;20055;-81
2022/03/21 10:18:58;;;;;;;14.20;9.45;;;10.10;63.00;;;;;;4914721;29;20048;-82
2022/03/21 10:21:29;;;;;;;14.50;9.93;;;10.20;62.30;;;;;;4914520;29;20060;-82
2022/03/21 10:24:02;;;;;;;12.95;8.52;;;10.40;62.00;;;;;;4915811;29;20052;-82
2022/03/21 10:26:32;;;;;;;15.07;9.57;;;10.60;62.00;;;;;;4898805;29;20134;-83
2022/03/21 10:29:02;;;;;;;14.20;9.35;;;10.60;61.50;;;;;;4914854;29;20063;-83
2022/03/21 10:31:41;;;;;;;17.88;10.88;;;10.70;61.20;;;;;;4915239;29;20055;-82
2022/03/21 10:34:11;;;;;;;14.15;9.90;;;10.70;60.40;;;;;;4914818;29;20082;-83
2022/03/21 10:36:59;;;;;;;14.77;10.00;;;10.90;58.20;;;;;;4898070;29;20142;-83
2022/03/21 10:39:27;;;;;;;15.75;9.77;;;10.90;58.00;;;;;;4898170;29;20083;-82
2022/03/21 10:41:57;;;;;;;14.32;9.70;;;11.00;57.50;;;;;;4915049;29;20086;-82
2022/03/21 10:44:26;;;;;;;15.90;9.70;;;11.00;57.00;;;;;;4915318;29;20067;-80
2022/03/21 10:46:54;;;;;;;14.70;9.98;;;11.10;56.30;;;;;;4898251;29;20055;-80
2022/03/21 10:49:34;;;;;;;17.38;10.80;;;11.30;56.50;;;;;;4914625;29;20134;-82
2022/03/21 10:52:05;;;;;;;14.80;10.40;;;11.20;56.70;;;;;;4914926;29;20120;-82
2022/03/21 10:54:45;;;;;;;15.80;10.23;;;11.40;56.70;;;;;;4913734;29;20072;-77
2022/03/21 10:57:33;;;;;;;16.20;10.38;;;11.50;57.20;;;;;;4895301;29;20052;-80
2022/03/21 11:00:17;;;;;;;17.15;10.75;;;11.50;55.70;;;;;;4914307;29;20051;-78
2022/03/21 11:02:56;;;;;;;15.27;10.18;;;11.50;55.80;;;;;;4915095;29;20058;-76
2022/03/21 11:05:25;;;;;;;16.23;10.98;;;11.70;54.90;;;;;;4914018;29;20404;-80
2022/03/21 11:07:54;;;;;;;18.58;12.35;;;11.70;54.10;;;;;;4913800;29;20417;-76
2022/03/21 11:10:23;;;;;;;18.67;12.32;;;11.70;54.50;;;;;;4913822;29;20181;-74
2022/03/21 11:12:50;;;;;;;18.05;12.27;;;11.70;54.90;;;;;;4913404;29;20155;-75
2022/03/21 11:15:18;;;;;;;17.15;11.07;;;11.90;54.00;;;;;;4913941;29;20048;-75
2022/03/21 11:17:47;;;;;;;16.70;10.27;;;12.10;54.30;;;;;;4914041;29;20052;-76
2022/03/21 11:20:15;;;;;;;17.92;12.18;;;12.40;54.00;;;;;;4914026;29;20052;-74
2022/03/21 11:22:44;;;;;;;18.33;12.82;;;12.40;52.90;;;;;;4913552;29;20490;-76
2022/03/21 11:25:14;;;;;;;16.00;10.32;;;12.50;53.90;;;;;;4913463;29;20126;-77
2022/03/21 11:28:10;;;;;;;16.73;11.85;;;12.80;54.10;;;;;;4914023;29;20075;-78
2022/03/21 11:30:51;;;;;;;17.23;11.65;;;13.00;53.70;;;;;;4909713;29;20067;-77
2022/03/21 11:33:35;;;;;;;16.17;12.15;;;13.00;53.60;;;;;;4917826;29;20490;-75
2022/03/21 11:36:05;;;;;;;21.08;12.82;;;13.00;52.50;;;;;;4923801;29;20062;-76
2022/03/21 11:38:36;;;;;;;18.10;12.00;;;12.90;53.10;;;;;;4935768;29;20098;-76
2022/03/21 11:41:15;;;;;;;17.20;11.75;;;13.10;53.70;;;;;;4936128;29;20048;-77
2022/03/21 11:43:44;;;;;;;18.13;11.70;;;13.30;52.60;;;;;;4916923;29;20087;-76
2022/03/21 11:46:30;;;;;;;18.67;12.48;;;13.40;52.10;;;;;;4916997;29;20112;-78
2022/03/21 11:48:59;;;;;;;18.75;12.23;;;13.40;50.70;;;;;;4917327;29;20059;-77
2022/03/21 11:51:40;;;;;;;18.42;12.07;;;13.60;51.20;;;;;;4917405;29;20048;-75
2022/03/21 11:54:26;;;;;;;17.80;11.82;;;13.60;50.60;;;;;;4940407;29;20399;-75
2022/03/21 11:57:01;;;;;;;17.88;10.95;;;13.70;51.30;;;;;;4952993;29;20061;-75
2022/03/21 12:00:03;;;;;;;18.42;11.77;;;14.00;50.90;;;;;;4950685;29;20043;-76
2022/03/21 12:02:57;;;;;;;16.77;11.18;;;14.10;49.60;;;;;;4952500;29;20047;-75
2022/03/21 12:08:52;;;;;;;15.63;10.63;;;14.30;48.80;;;;;;4935928;29;20056;-79
2022/03/21 12:11:58;;;;;;;16.33;10.77;;;14.40;49.20;;;;;;4935886;29;20095;-78
2022/03/21 12:14:40;;;;;;;14.73;10.35;;;14.50;49.30;;;;;;4914987;29;20048;-76
2022/03/21 12:17:38;;;;;;;14.15;9.70;;;14.60;49.10;;;;;;4936312;29;20051;-78
2022/03/21 12:20:15;;;;;;;13.80;9.43;;;14.80;48.20;;;;;;4936304;29;20047;-77
2022/03/21 12:23:00;;;;;;;15.43;10.55;;;15.00;47.50;;;;;;4949237;29;20059;-77
2022/03/21 12:25:46;;;;;;;15.60;9.73;;;15.00;47.00;;;;;;4954617;29;20055;-77
2022/03/21 12:29:31;;;;;;;14.23;10.07;;;15.10;47.10;;;;;;4954886;29;20155;-74
2022/03/21 12:31:26;;;;;;;14.00;9.50;;;15.30;46.00;;;;;;4940152;29;20052;-76
2022/03/21 12:33:54;;;;;;;14.05;9.65;;;15.40;45.40;;;;;;4955523;29;20119;-76
2022/03/21 12:36:41;;;;;;;13.00;9.05;;;15.50;45.10;;;;;;4965828;29;20154;-77
2022/03/21 12:39:18;;;;;;;13.52;8.65;;;15.50;45.80;;;;;;4965286;29;20079;-78
2022/03/21 12:41:47;;;;;;;14.00;8.75;;;15.80;53.60;;;;;;4954956;28;20066;-82
2022/03/21 12:44:15;;;;;;;13.70;8.85;;;16.10;51.20;;;;;;4953626;29;20496;-75
2022/03/21 12:46:45;;;;;;;12.00;8.07;;;16.20;46.80;;;;;;4953806;29;20046;-77
2022/03/21 12:49:12;;;;;;;16.10;8.57;;;16.20;49.10;;;;;;4953818;29;20134;-75
2022/03/21 12:51:39;;;;;;;14.13;8.15;;;16.30;47.70;;;;;;4954061;29;20130;-79
2022/03/21 12:54:07;;;;;;;12.32;8.23;;;16.50;49.20;;;;;;4946468;28;20516;-75
2022/03/21 12:56:34;;;;;;;12.50;7.65;;;16.40;44.80;;;;;;4941762;29;20162;-77
2022/03/21 12:59:05;;;;;;;12.38;7.93;;;16.70;47.20;;;;;;4953711;29;20055;-79
2022/03/21 13:01:34;;;;;;;15.85;8.60;;;16.90;46.70;;;;;;4953498;29;20137;-75
2022/03/21 13:12:33;;;;;;;15.95;8.52;;;16.50;41.80;;;;;;4953534;29;20175;-75
2022/03/21 13:15:09;;;;;;;12.77;7.45;;;16.60;41.90;;;;;;4953617;29;20047;-74
2022/03/21 13:17:54;;;;;;;11.93;6.72;;;16.70;41.50;;;;;;4953510;29;20420;-77
2022/03/21 13:20:26;;;;;;;14.48;7.78;;;16.90;41.70;;;;;;4954386;29;20147;-78
2022/03/21 13:22:55;;;;;;;13.15;7.30;;;17.00;42.50;;;;;;4954180;29;20101;-76
2022/03/21 13:25:30;;;;;;;12.50;7.20;;;17.10;41.90;;;;;;4953763;29;20102;-77
2022/03/21 13:28:13;;;;;;;14.23;6.95;;;17.60;40.80;;;;;;4953622;29;20122;-77
2022/03/21 13:30:55;;;;;;;11.70;5.85;;;17.70;40.70;;;;;;4952956;29;20529;-75
2022/03/21 13:33:26;;;;;;;13.90;6.15;;;17.80;39.70;;;;;;4953036;29;20062;-73
2022/03/21 13:35:54;;;;;;;13.40;6.70;;;18.00;42.00;;;;;;4953020;29;20055;-75
2022/03/21 13:38:26;;;;;;;12.05;6.53;;;18.30;40.10;;;;;;4953285;29;20078;-73
2022/03/21 13:40:54;;;;;;;15.65;7.57;;;18.70;39.60;;;;;;4953870;29;20051;-73
2022/03/21 13:43:25;;;;;;;11.35;6.00;;;18.70;41.40;;;;;;4954474;29;20461;-74
2022/03/21 13:45:54;;;;;;;10.55;6.47;;;19.00;43.80;;;;;;4953480;29;20051;-76
2022/03/21 13:48:44;;;;;;;17.45;6.75;;;19.20;40.50;;;;;;4953380;29;20050;-74
2022/03/21 13:51:21;;;;;;;12.77;6.13;;;19.30;38.80;;;;;;4931266;29;20464;-73
2022/03/21 13:53:49;;;;;;;13.88;6.57;;;19.70;39.40;;;;;;4929524;29;20146;-76
2022/03/21 13:56:26;;;;;;;13.40;6.13;;;19.60;38.60;;;;;;4913229;29;20167;-76
2022/03/21 13:59:09;;;;;;;12.32;5.85;;;19.90;39.30;;;;;;4914967;29;20052;-75
2022/03/21 14:01:36;;;;;;;12.90;6.47;;;19.90;40.40;;;;;;4914876;29;20108;-75
2022/03/21 14:04:20;;;;;;;13.00;6.13;;;20.20;38.80;;;;;;4914587;29;20160;-75
2022/03/21 14:07:02;;;;;;;15.18;6.93;;;20.10;38.20;;;;;;4915056;29;20054;-73
2022/03/21 14:09:30;;;;;;;14.05;6.10;;;19.80;37.80;;;;;;4921456;29;20055;-75
2022/03/21 14:12:10;;;;;;;11.13;6.10;;;20.50;38.10;;;;;;4933157;29;20556;-75
2022/03/21 14:14:37;;;;;;;11.88;6.40;;;20.40;38.20;;;;;;4933572;29;20048;-76
2022/03/21 14:17:06;;;;;;;15.52;6.63;;;20.80;38.10;;;;;;4933519;29;20055;-75
2022/03/21 14:19:35;;;;;;;12.32;6.20;;;21.50;37.20;;;;;;4933549;29;20564;-76
2022/03/21 14:22:03;;;;;;;12.73;7.05;;;22.30;36.30;;;;;;4933306;29;20059;-77
2022/03/21 14:24:30;;;;;;;11.88;7.20;;;22.30;35.20;;;;;;4933393;29;20062;-77
2022/03/21 14:26:57;;;;;;;14.23;7.10;;;22.90;34.70;;;;;;4933597;29;20056;-77
2022/03/21 14:29:24;;;;;;;11.40;6.70;;;22.90;35.30;;;;;;4933547;29;20061;-79
2022/03/21 14:31:52;;;;;;;11.07;6.25;;;23.00;34.30;;;;;;4933728;29;20065;-77
2022/03/21 14:34:19;;;;;;;13.43;6.72;;;23.70;34.00;;;;;;4933596;29;20137;-76
2022/03/21 14:36:48;;;;;;;12.38;6.25;;;23.80;34.00;;;;;;4933322;29;20130;-76
2022/03/21 14:39:15;;;;;;;9.80;5.95;;;24.20;33.30;;;;;;4935968;29;20051;-76
2022/03/21 14:41:45;;;;;;;11.52;6.45;;;24.10;32.70;;;;;;4933511;29;20047;-76
2022/03/21 14:44:12;;;;;;;10.35;6.50;;;24.10;32.50;;;;;;4934049;29;20056;-77
2022/03/21 14:46:39;;;;;;;11.23;6.53;;;24.10;31.80;;;;;;4933455;29;20052;-77
2022/03/21 14:49:06;;;;;;;10.13;6.60;;;24.00;32.30;;;;;;4933098;29;20043;-75
2022/03/21 14:51:35;;;;;;;9.90;6.32;;;24.80;32.10;;;;;;4933201;29;20062;-76
2022/03/21 14:54:04;;;;;;;13.20;6.30;;;24.80;31.20;;;;;;4939627;29;20493;-75
2022/03/21 14:56:32;;;;;;;9.63;6.63;;;24.70;32.00;;;;;;4950676;29;20119;-76
2022/03/21 14:58:59;;;;;;;10.32;5.95;;;24.60;31.80;;;;;;4957252;29;20043;-74
2022/03/21 15:01:26;;;;;;;11.70;5.95;;;24.80;32.20;;;;;;4966067;29;20063;-78
2022/03/21 15:03:54;;;;;;;10.30;5.63;;;24.40;31.40;;;;;;4967468;29;20043;-77
2022/03/21 15:06:21;;;;;;;8.57;5.35;;;24.00;32.00;;;;;;4961209;28;20059;-76
2022/03/21 15:08:49;;;;;;;10.15;5.63;;;23.50;33.10;;;;;;4964276;29;20075;-78
2022/03/21 15:11:17;;;;;;;8.15;5.47;;;23.30;32.70;;;;;;4960094;29;20443;-75
2022/03/21 15:13:46;;;;;;;10.00;5.53;;;23.00;32.70;;;;;;4939116;29;20066;-76
2022/03/21 15:16:16;;;;;;;9.25;5.57;;;23.20;32.40;;;;;;4937501;29;20130;-75
2022/03/21 15:18:44;;;;;;;12.68;5.57;;;23.20;32.60;;;;;;4941177;29;20070;-77
2022/03/21 15:21:11;;;;;;;10.45;5.60;;;23.50;32.20;;;;;;4949249;29;20047;-75
2022/03/21 15:23:38;;;;;;;9.18;5.43;;;23.80;31.90;;;;;;4955471;29;20049;-75
2022/03/21 15:26:05;;;;;;;11.20;6.35;;;23.90;32.30;;;;;;4956273;29;20315;-74
2022/03/21 15:28:34;;;;;;;11.70;5.90;;;24.60;31.70;;;;;;4956320;29;20141;-74
2022/03/21 15:31:02;;;;;;;8.90;4.90;;;24.50;30.90;;;;;;4955370;29;20054;-76
2022/03/21 15:33:30;;;;;;;8.77;5.40;;;24.40;31.40;;;;;;4955494;29;20790;-75
2022/03/21 15:41:39;;;;;;;9.18;5.13;;;24.30;31.40;;;;;;4953593;28;20055;-75
2022/03/21 15:41:42;;;;;;;9.38;5.32;;;24.20;31.20;;;;;;4955273;29;20074;-76
2022/03/21 15:44:11;;;;;;;9.80;5.22;;;23.70;31.40;;;;;;4954116;29;20138;-78
2022/03/21 15:46:38;;;;;;;10.23;6.43;;;23.60;32.00;;;;;;4946133;29;20150;-75
2022/03/21 15:49:06;;;;;;;12.07;8.02;;;23.30;32.30;;;;;;4953775;29;20047;-76
2022/03/21 15:51:33;;;;;;;12.07;6.10;;;23.20;32.30;;;;;;4954945;29;20560;-78
2022/03/21 15:54:00;;;;;;;10.55;5.38;;;22.30;32.60;;;;;;4953238;29;20142;-78
2022/03/21 15:56:27;;;;;;;9.07;4.78;;;22.00;32.70;;;;;;4953382;28;20130;-74
2022/03/21 15:58:58;;;;;;;10.50;5.45;;;22.10;33.60;;;;;;4954339;28;20047;-73
2022/03/21 16:01:26;;;;;;;8.88;4.95;;;22.10;33.00;;;;;;4954614;28;20055;-79
2022/03/21 16:03:53;;;;;;;9.23;4.78;;;21.50;33.10;;;;;;4946811;28;20091;-74
2022/03/21 16:06:20;;;;;;;10.43;5.03;;;21.60;34.30;;;;;;4954114;29;20155;-76
2022/03/21 16:08:47;;;;;;;7.72;4.25;;;21.00;33.70;;;;;;4953877;29;20055;-80
2022/03/21 16:11:15;;;;;;;8.98;4.72;;;21.00;34.70;;;;;;4950648;29;20477;-76
2022/03/21 16:13:42;;;;;;;11.38;4.93;;;20.70;34.50;;;;;;4951796;29;20048;-78
2022/03/21 16:16:09;;;;;;;8.32;4.70;;;20.90;35.00;;;;;;4954919;29;20079;-78
2022/03/21 16:18:41;;;;;;;10.20;4.95;;;21.00;34.40;;;;;;4953637;28;20858;-77
2022/03/21 16:21:09;;;;;;;9.07;4.38;;;20.80;35.00;;;;;;4939158;29;20050;-73
2022/03/21 16:23:36;;;;;;;8.63;4.60;;;20.80;34.60;;;;;;4952214;29;20055;-74
2022/03/21 16:26:03;;;;;;;9.52;4.88;;;20.60;34.60;;;;;;4954616;29;20044;-74
2022/03/21 16:28:31;;;;;;;8.27;4.82;;;20.30;35.50;;;;;;4956040;29;20048;-74
2022/03/21 16:30:58;;;;;;;9.10;4.80;;;20.30;35.20;;;;;;4955391;29;20081;-75
2022/03/21 16:33:26;;;;;;;10.18;5.25;;;20.00;35.90;;;;;;4952758;29;20564;-77
2022/03/21 16:35:54;;;;;;;9.45;5.32;;;19.80;35.70;;;;;;4942297;29;20051;-73
2022/03/21 16:38:21;;;;;;;11.65;5.65;;;19.50;36.30;;;;;;4950384;29;20489;-75
2022/03/21 16:40:48;;;;;;;8.05;5.32;;;19.50;37.30;;;;;;4954035;29;20142;-75
2022/03/21 16:43:15;;;;;;;11.27;5.47;;;19.30;36.90;;;;;;4954804;29;20065;-76
2022/03/21 16:45:43;;;;;;;10.48;5.20;;;19.00;37.40;;;;;;4954596;29;20416;-76
2022/03/21 16:48:11;;;;;;;8.85;5.35;;;18.90;37.40;;;;;;4954209;29;20119;-75
2022/03/21 16:50:40;;;;;;;8.07;5.03;;;18.80;37.10;;;;;;4954036;29;20043;-74
2022/03/21 16:53:08;;;;;;;9.25;5.20;;;18.50;38.10;;;;;;4948921;29;20166;-76
2022/03/21 16:55:36;;;;;;;10.50;5.50;;;18.20;38.10;;;;;;4951551;29;20059;-74
2022/03/21 16:58:03;;;;;;;11.40;7.00;;;18.00;38.40;;;;;;4954204;29;20487;-76
2022/03/21 17:00:31;;;;;;;10.90;6.47;;;17.80;38.80;;;;;;4957782;28;20548;-76
2022/03/21 17:03:05;;;;;;;9.25;5.55;;;17.60;39.40;;;;;;4972618;28;20055;-74
2022/03/21 17:05:33;;;;;;;8.03;4.90;;;17.40;39.30;;;;;;4966554;28;20050;-75
2022/03/21 17:08:01;;;;;;;10.40;5.35;;;17.40;38.90;;;;;;4956175;28;20568;-78
2022/03/21 17:10:31;;;;;;;10.00;5.78;;;17.00;39.40;;;;;;4953146;28;20141;-76
2022/03/21 17:12:59;;;;;;;10.18;5.22;;;16.90;39.50;;;;;;4951310;28;20401;-77
2022/03/21 17:15:27;;;;;;;7.80;4.93;;;16.60;40.00;;;;;;4964353;28;20065;-75
2022/03/21 17:23:36;;;;;;;9.48;5.70;;;16.10;40.60;;;;;;4953650;28;20569;-78
2022/03/21 17:26:04;;;;;;;7.97;4.82;;;16.00;40.60;;;;;;4966122;28;20054;-78
2022/03/21 17:28:32;;;;;;;10.73;6.20;;;15.90;40.80;;;;;;4953986;28;20049;-80
2022/03/21 17:30:59;;;;;;;10.50;5.68;;;15.50;41.30;;;;;;4970512;29;20085;-81
2022/03/21 17:33:26;;;;;;;10.60;6.38;;;15.50;41.80;;;;;;4959015;29;20131;-79
2022/03/21 17:35:53;;;;;;;12.80;7.15;;;15.30;42.50;;;;;;4961175;28;20133;-74
2022/03/21 17:38:21;;;;;;;12.23;6.50;;;15.10;42.20;;;;;;4962417;28;20046;-77
2022/03/21 17:40:49;;;;;;;11.65;6.07;;;15.00;42.40;;;;;;4954582;28;20138;-75
2022/03/21 17:43:18;;;;;;;10.27;5.78;;;15.00;42.10;;;;;;4911688;28;88451;-79
2022/03/21 17:45:47;;;;;;;10.10;5.85;;;14.80;43.30;;;;;;4906441;29;20137;-82
2022/03/21 17:48:15;;;;;;;10.18;5.00;;;14.60;43.70;;;;;;4769073;29;123831;-77
2022/03/21 17:50:42;;;;;;;7.68;4.90;;;14.50;44.10;;;;;;4888996;29;20048;-74
2022/03/21 17:55:51;;;;;;;7.95;4.43;;;14.30;44.40;;;;;;4802329;29;158867;-75
2022/03/21 17:58:19;;;;;;;8.07;4.53;;;14.10;44.50;;;;;;4926791;29;20048;-76
2022/03/21 18:00:47;;;;;;;7.95;5.00;;;14.10;45.50;;;;;;4915497;29;20059;-76
2022/03/21 18:04:27;;;;;;;;;;;14.00;45.60;;;;;;5029617;27;20415;-82
2022/03/21 18:06:54;;;;;;;7.75;4.60;;;13.80;46.00;;;;;;4961940;28;19928;-84
2022/03/21 18:09:23;;;;;;;10.23;4.55;;;13.70;46.10;;;;;;4998251;28;21075;-81
2022/03/21 18:11:50;;;;;;;10.60;5.03;;;13.60;45.60;;;;;;5071230;28;20397;-81
2022/03/21 18:14:17;;;;;;;7.72;4.68;;;13.60;45.90;;;;;;5065610;28;20057;-82
2022/03/21 18:16:45;;;;;;;9.48;5.65;;;13.50;46.10;;;;;;5065682;28;20091;-80
2022/03/21 18:21:56;;;;;;;11.60;5.47;;;13.30;47.30;;;;;;5056175;28;20053;-79
2022/03/21 18:24:27;;;;;;;9.82;5.00;;;13.20;47.40;;;;;;5065389;28;20093;-81
2022/03/21 18:26:55;;;;;;;8.05;5.05;;;13.00;47.40;;;;;;5048022;28;20103;-83
2022/03/21 18:29:23;;;;;;;8.52;4.93;;;12.90;47.50;;;;;;5067149;28;20049;-83
2022/03/21 18:31:50;;;;;;;11.73;5.45;;;12.90;47.50;;;;;;5067891;28;20057;-84
2022/03/21 18:34:18;;;;;;;10.18;5.53;;;12.70;46.90;;;;;;5068675;28;20140;-86
2022/03/21 18:36:45;;;;;;;10.07;5.10;;;12.70;47.90;;;;;;5067419;28;20044;-84